sensor_id;sensor_type;location;lat;lon;timestamp;P1;durP1;ratioP1;P2;durP2;ratioP2
73919;SDS011;62266;53.348;-1.496;2022-09-20T00:01:19;3.13;;;2.10;;
73919;SDS011;62266;53.348;-1.496;2022-09-20T00:03:46;3.25;;;2.15;;
73919;SDS011;62266;53.348;-1.496;2022-09-20T00:06:15;2.70;;;2.00;;
73919;SDS011;62266;53.348;-1.496;2022-09-20T00:08:42;4.00;;;1.90;;
73919;SDS011;62266;53.348;-1.496;2022-09-20T00:11:12;3.15;;;2.17;;
73919;SDS011;62266;53.348;-1.496;2022-09-20T00:13:43;2.73;;;1.80;;
73919;SDS011;62266;53.348;-1.496;2022-09-20T00:16:11;3.75;;;2.10;;
73919;SDS011;62266;53.348;-1.496;2022-09-20T00:18:38;4.13;;;2.40;;
73919;SDS011;62266;53.348;-1.496;2022-09-20T00:21:05;3.08;;;2.20;;
73919;SDS011;62266;53.348;-1.496;2022-09-20T00:23:31;5.10;;;2.10;;
73919;SDS011;62266;53.348;-1.496;2022-09-20T00:25:58;3.63;;;2.10;;
73919;SDS011;62266;53.348;-1.496;2022-09-20T00:28:25;2.92;;;1.90;;
73919;SDS011;62266;53.348;-1.496;2022-09-20T00:30:52;4.85;;;2.20;;
73919;SDS011;62266;53.348;-1.496;2022-09-20T00:33:18;4.00;;;2.00;;
73919;SDS011;62266;53.348;-1.496;2022-09-20T00:35:44;2.97;;;1.80;;
73919;SDS011;62266;53.348;-1.496;2022-09-20T00:38:11;2.45;;;1.60;;
73919;SDS011;62266;53.348;-1.496;2022-09-20T00:40:38;2.83;;;1.73;;
73919;SDS011;62266;53.348;-1.496;2022-09-20T00:43:05;2.28;;;1.80;;
73919;SDS011;62266;53.348;-1.496;2022-09-20T00:45:31;3.30;;;1.73;;
73919;SDS011;62266;53.348;-1.496;2022-09-20T00:48:02;3.88;;;1.70;;
73919;SDS011;62266;53.348;-1.496;2022-09-20T00:50:37;4.05;;;2.05;;
73919;SDS011;62266;53.348;-1.496;2022-09-20T00:55:42;2.42;;;1.70;;
73919;SDS011;62266;53.348;-1.496;2022-09-20T00:58:12;3.23;;;1.83;;
73919;SDS011;62266;53.348;-1.496;2022-09-20T01:00:39;2.33;;;1.92;;
73919;SDS011;62266;53.348;-1.496;2022-09-20T01:03:06;1.63;;;1.45;;
73919;SDS011;62266;53.348;-1.496;2022-09-20T01:05:33;3.35;;;1.63;;
73919;SDS011;62266;53.348;-1.496;2022-09-20T01:07:59;2.45;;;1.50;;
73919;SDS011;62266;53.348;-1.496;2022-09-20T01:10:25;2.57;;;1.57;;
73919;SDS011;62266;53.348;-1.496;2022-09-20T01:12:51;2.80;;;1.65;;
73919;SDS011;62266;53.348;-1.496;2022-09-20T01:15:17;2.92;;;1.80;;
73919;SDS011;62266;53.348;-1.496;2022-09-20T01:17:47;2.60;;;1.30;;
73919;SDS011;62266;53.348;-1.496;2022-09-20T01:20:28;3.13;;;1.60;;
73919;SDS011;62266;53.348;-1.496;2022-09-20T01:28:37;2.47;;;1.40;;
73919;SDS011;62266;53.348;-1.496;2022-09-20T01:36:22;2.10;;;1.65;;
73919;SDS011;62266;53.348;-1.496;2022-09-20T01:41:34;2.00;;;1.40;;
73919;SDS011;62266;53.348;-1.496;2022-09-20T01:46:43;2.10;;;1.58;;
73919;SDS011;62266;53.348;-1.496;2022-09-20T02:24:43;2.17;;;1.73;;
73919;SDS011;62266;53.348;-1.496;2022-09-20T02:27:31;2.47;;;1.50;;
73919;SDS011;62266;53.348;-1.496;2022-09-20T02:38:44;2.37;;;1.50;;
73919;SDS011;62266;53.348;-1.496;2022-09-20T02:55:39;1.58;;;0.95;;
73919;SDS011;62266;53.348;-1.496;2022-09-20T02:58:19;1.50;;;1.00;;
73919;SDS011;62266;53.348;-1.496;2022-09-20T03:01:04;2.33;;;1.13;;
73919;SDS011;62266;53.348;-1.496;2022-09-20T03:09:49;1.55;;;0.90;;
73919;SDS011;62266;53.348;-1.496;2022-09-20T03:20:32;1.80;;;0.80;;
73919;SDS011;62266;53.348;-1.496;2022-09-20T03:23:12;1.15;;;0.80;;
73919;SDS011;62266;53.348;-1.496;2022-09-20T03:25:52;2.40;;;0.80;;
73919;SDS011;62266;53.348;-1.496;2022-09-20T03:28:40;1.70;;;0.88;;
73919;SDS011;62266;53.348;-1.496;2022-09-20T03:34:42;1.27;;;0.90;;
73919;SDS011;62266;53.348;-1.496;2022-09-20T03:40:05;1.08;;;0.70;;
73919;SDS011;62266;53.348;-1.496;2022-09-20T03:42:34;1.90;;;1.10;;
73919;SDS011;62266;53.348;-1.496;2022-09-20T03:50:44;1.30;;;0.80;;
73919;SDS011;62266;53.348;-1.496;2022-09-20T03:53:44;1.85;;;1.00;;
73919;SDS011;62266;53.348;-1.496;2022-09-20T03:59:20;1.60;;;1.10;;
73919;SDS011;62266;53.348;-1.496;2022-09-20T04:04:33;1.63;;;1.30;;
73919;SDS011;62266;53.348;-1.496;2022-09-20T04:18:09;1.85;;;1.25;;
73919;SDS011;62266;53.348;-1.496;2022-09-20T04:20:45;2.05;;;1.30;;
73919;SDS011;62266;53.348;-1.496;2022-09-20T04:26:07;1.80;;;1.30;;
73919;SDS011;62266;53.348;-1.496;2022-09-20T04:28:34;1.67;;;1.07;;
73919;SDS011;62266;53.348;-1.496;2022-09-20T04:31:06;2.13;;;1.50;;
73919;SDS011;62266;53.348;-1.496;2022-09-20T04:33:40;1.30;;;0.90;;
73919;SDS011;62266;53.348;-1.496;2022-09-20T04:59:01;2.47;;;1.25;;
73919;SDS011;62266;53.348;-1.496;2022-09-20T05:13:49;2.35;;;1.52;;
73919;SDS011;62266;53.348;-1.496;2022-09-20T05:19:24;3.05;;;1.60;;
73919;SDS011;62266;53.348;-1.496;2022-09-20T05:27:45;3.00;;;1.50;;
73919;SDS011;62266;53.348;-1.496;2022-09-20T05:33:29;2.50;;;1.38;;
73919;SDS011;62266;53.348;-1.496;2022-09-20T05:38:50;2.40;;;1.65;;
73919;SDS011;62266;53.348;-1.496;2022-09-20T05:44:18;2.40;;;1.50;;
73919;SDS011;62266;53.348;-1.496;2022-09-20T05:58:21;3.53;;;1.70;;
73919;SDS011;62266;53.348;-1.496;2022-09-20T06:01:18;2.75;;;1.50;;
73919;SDS011;62266;53.348;-1.496;2022-09-20T06:03:55;3.28;;;1.60;;
73919;SDS011;62266;53.348;-1.496;2022-09-20T06:06:30;3.67;;;1.85;;
73919;SDS011;62266;53.348;-1.496;2022-09-20T06:14:58;4.05;;;1.90;;
73919;SDS011;62266;53.348;-1.496;2022-09-20T06:17:37;3.50;;;1.80;;
73919;SDS011;62266;53.348;-1.496;2022-09-20T06:22:37;3.50;;;1.90;;
73919;SDS011;62266;53.348;-1.496;2022-09-20T06:27:59;5.18;;;1.67;;
73919;SDS011;62266;53.348;-1.496;2022-09-20T06:30:34;4.82;;;2.10;;
73919;SDS011;62266;53.348;-1.496;2022-09-20T06:35:35;4.28;;;2.40;;
73919;SDS011;62266;53.348;-1.496;2022-09-20T06:41:02;4.60;;;2.10;;
73919;SDS011;62266;53.348;-1.496;2022-09-20T06:43:46;5.63;;;2.70;;
73919;SDS011;62266;53.348;-1.496;2022-09-20T06:46:13;4.00;;;2.67;;
73919;SDS011;62266;53.348;-1.496;2022-09-20T06:48:41;3.50;;;2.53;;
73919;SDS011;62266;53.348;-1.496;2022-09-20T06:51:06;3.10;;;2.27;;
73919;SDS011;62266;53.348;-1.496;2022-09-20T06:53:38;4.68;;;2.50;;
73919;SDS011;62266;53.348;-1.496;2022-09-20T06:56:06;5.32;;;2.85;;
73919;SDS011;62266;53.348;-1.496;2022-09-20T06:58:33;4.27;;;2.67;;
73919;SDS011;62266;53.348;-1.496;2022-09-20T07:00:59;6.63;;;2.70;;
73919;SDS011;62266;53.348;-1.496;2022-09-20T07:03:25;3.60;;;2.47;;
73919;SDS011;62266;53.348;-1.496;2022-09-20T07:05:50;4.80;;;2.72;;
73919;SDS011;62266;53.348;-1.496;2022-09-20T07:08:16;7.27;;;2.77;;
73919;SDS011;62266;53.348;-1.496;2022-09-20T07:10:42;5.22;;;3.05;;
73919;SDS011;62266;53.348;-1.496;2022-09-20T07:13:08;4.43;;;2.60;;
73919;SDS011;62266;53.348;-1.496;2022-09-20T07:15:35;4.57;;;2.83;;
73919;SDS011;62266;53.348;-1.496;2022-09-20T07:18:02;5.03;;;2.77;;
73919;SDS011;62266;53.348;-1.496;2022-09-20T07:20:28;6.18;;;3.40;;
73919;SDS011;62266;53.348;-1.496;2022-09-20T07:22:53;4.40;;;2.80;;
73919;SDS011;62266;53.348;-1.496;2022-09-20T07:25:19;3.70;;;2.80;;
73919;SDS011;62266;53.348;-1.496;2022-09-20T07:27:45;4.68;;;3.00;;
73919;SDS011;62266;53.348;-1.496;2022-09-20T07:30:14;6.28;;;3.30;;
73919;SDS011;62266;53.348;-1.496;2022-09-20T07:32:40;5.78;;;3.13;;
73919;SDS011;62266;53.348;-1.496;2022-09-20T07:35:08;4.00;;;2.55;;
73919;SDS011;62266;53.348;-1.496;2022-09-20T07:37:35;5.77;;;2.80;;
73919;SDS011;62266;53.348;-1.496;2022-09-20T07:40:02;5.50;;;3.25;;
73919;SDS011;62266;53.348;-1.496;2022-09-20T07:42:29;5.93;;;3.05;;
73919;SDS011;62266;53.348;-1.496;2022-09-20T07:44:55;5.00;;;3.22;;
73919;SDS011;62266;53.348;-1.496;2022-09-20T07:47:21;4.50;;;3.10;;
73919;SDS011;62266;53.348;-1.496;2022-09-20T07:49:50;5.78;;;3.13;;
73919;SDS011;62266;53.348;-1.496;2022-09-20T07:52:16;6.88;;;3.10;;
73919;SDS011;62266;53.348;-1.496;2022-09-20T07:54:43;4.63;;;2.87;;
73919;SDS011;62266;53.348;-1.496;2022-09-20T07:57:10;3.80;;;2.65;;
73919;SDS011;62266;53.348;-1.496;2022-09-20T07:59:36;5.20;;;2.85;;
73919;SDS011;62266;53.348;-1.496;2022-09-20T08:02:01;7.43;;;2.70;;
73919;SDS011;62266;53.348;-1.496;2022-09-20T08:04:27;5.28;;;2.97;;
73919;SDS011;62266;53.348;-1.496;2022-09-20T08:06:52;6.47;;;3.00;;
73919;SDS011;62266;53.348;-1.496;2022-09-20T08:09:18;4.30;;;2.37;;
73919;SDS011;62266;53.348;-1.496;2022-09-20T08:11:43;5.05;;;2.97;;
73919;SDS011;62266;53.348;-1.496;2022-09-20T08:14:14;4.13;;;2.90;;
73919;SDS011;62266;53.348;-1.496;2022-09-20T08:16:45;3.80;;;2.67;;
73919;SDS011;62266;53.348;-1.496;2022-09-20T08:19:15;4.47;;;2.22;;
73919;SDS011;62266;53.348;-1.496;2022-09-20T08:21:45;4.40;;;2.60;;
73919;SDS011;62266;53.348;-1.496;2022-09-20T08:24:12;5.20;;;2.50;;
73919;SDS011;62266;53.348;-1.496;2022-09-20T08:26:37;5.03;;;2.50;;
73919;SDS011;62266;53.348;-1.496;2022-09-20T08:29:03;3.47;;;2.25;;
73919;SDS011;62266;53.348;-1.496;2022-09-20T08:31:30;3.78;;;2.42;;
73919;SDS011;62266;53.348;-1.496;2022-09-20T08:34:01;2.93;;;1.87;;
73919;SDS011;62266;53.348;-1.496;2022-09-20T08:36:28;2.95;;;2.10;;
73919;SDS011;62266;53.348;-1.496;2022-09-20T08:38:56;3.55;;;1.92;;
73919;SDS011;62266;53.348;-1.496;2022-09-20T08:41:26;3.87;;;2.00;;
73919;SDS011;62266;53.348;-1.496;2022-09-20T08:43:56;4.60;;;2.25;;
73919;SDS011;62266;53.348;-1.496;2022-09-20T08:46:43;4.22;;;2.03;;
73919;SDS011;62266;53.348;-1.496;2022-09-20T08:49:14;5.97;;;2.33;;
73919;SDS011;62266;53.348;-1.496;2022-09-20T08:51:43;4.55;;;2.15;;
73919;SDS011;62266;53.348;-1.496;2022-09-20T08:54:14;3.63;;;2.20;;
73919;SDS011;62266;53.348;-1.496;2022-09-20T08:56:40;3.20;;;2.20;;
73919;SDS011;62266;53.348;-1.496;2022-09-20T08:59:10;3.15;;;2.00;;
73919;SDS011;62266;53.348;-1.496;2022-09-20T09:01:39;2.88;;;1.88;;
73919;SDS011;62266;53.348;-1.496;2022-09-20T09:04:16;2.83;;;2.13;;
73919;SDS011;62266;53.348;-1.496;2022-09-20T09:06:43;3.63;;;2.00;;
73919;SDS011;62266;53.348;-1.496;2022-09-20T09:09:17;3.22;;;1.92;;
73919;SDS011;62266;53.348;-1.496;2022-09-20T09:11:44;2.70;;;1.67;;
73919;SDS011;62266;53.348;-1.496;2022-09-20T09:14:12;2.55;;;1.67;;
73919;SDS011;62266;53.348;-1.496;2022-09-20T09:16:59;1.90;;;1.50;;
73919;SDS011;62266;53.348;-1.496;2022-09-20T09:21:55;2.47;;;1.80;;
73919;SDS011;62266;53.348;-1.496;2022-09-20T09:24:24;2.85;;;1.80;;
73919;SDS011;62266;53.348;-1.496;2022-09-20T09:26:50;3.20;;;1.90;;
73919;SDS011;62266;53.348;-1.496;2022-09-20T09:29:30;3.35;;;2.03;;
73919;SDS011;62266;53.348;-1.496;2022-09-20T09:31:55;2.90;;;1.90;;
73919;SDS011;62266;53.348;-1.496;2022-09-20T09:34:43;2.83;;;1.85;;
73919;SDS011;62266;53.348;-1.496;2022-09-20T09:37:20;2.38;;;1.73;;
73919;SDS011;62266;53.348;-1.496;2022-09-20T09:39:58;2.30;;;1.63;;
73919;SDS011;62266;53.348;-1.496;2022-09-20T09:42:46;3.33;;;1.80;;
73919;SDS011;62266;53.348;-1.496;2022-09-20T09:48:16;3.08;;;1.80;;
73919;SDS011;62266;53.348;-1.496;2022-09-20T09:51:11;3.25;;;1.85;;
73919;SDS011;62266;53.348;-1.496;2022-09-20T09:53:40;2.07;;;1.67;;
73919;SDS011;62266;53.348;-1.496;2022-09-20T10:01:20;3.17;;;1.58;;
73919;SDS011;62266;53.348;-1.496;2022-09-20T10:15:15;2.40;;;1.58;;
73919;SDS011;62266;53.348;-1.496;2022-09-20T10:36:52;2.20;;;1.40;;
73919;SDS011;62266;53.348;-1.496;2022-09-20T10:39:24;4.10;;;1.65;;
73919;SDS011;62266;53.348;-1.496;2022-09-20T10:48:04;4.57;;;2.00;;
73919;SDS011;62266;53.348;-1.496;2022-09-20T10:53:51;4.22;;;2.00;;
73919;SDS011;62266;53.348;-1.496;2022-09-20T10:56:26;3.15;;;1.92;;
73919;SDS011;62266;53.348;-1.496;2022-09-20T11:13:12;2.83;;;1.50;;
73919;SDS011;62266;53.348;-1.496;2022-09-20T11:15:47;2.27;;;1.47;;
73919;SDS011;62266;53.348;-1.496;2022-09-20T11:20:50;2.47;;;1.40;;
73919;SDS011;62266;53.348;-1.496;2022-09-20T11:23:38;1.80;;;1.15;;
73919;SDS011;62266;53.348;-1.496;2022-09-20T11:26:51;2.13;;;1.40;;
73919;SDS011;62266;53.348;-1.496;2022-09-20T11:29:11;2.53;;;1.40;;
73919;SDS011;62266;53.348;-1.496;2022-09-20T11:31:46;2.05;;;1.30;;
73919;SDS011;62266;53.348;-1.496;2022-09-20T11:36:59;1.63;;;1.40;;
73919;SDS011;62266;53.348;-1.496;2022-09-20T11:42:02;2.03;;;1.30;;
73919;SDS011;62266;53.348;-1.496;2022-09-20T11:44:28;2.25;;;1.33;;
73919;SDS011;62266;53.348;-1.496;2022-09-20T11:49:22;3.20;;;1.53;;
73919;SDS011;62266;53.348;-1.496;2022-09-20T11:57:26;1.80;;;1.45;;
73919;SDS011;62266;53.348;-1.496;2022-09-20T11:59:56;3.00;;;1.70;;
73919;SDS011;62266;53.348;-1.496;2022-09-20T12:05:03;2.95;;;1.60;;
73919;SDS011;62266;53.348;-1.496;2022-09-20T12:07:39;2.20;;;1.63;;
73919;SDS011;62266;53.348;-1.496;2022-09-20T12:10:07;2.88;;;1.67;;
73919;SDS011;62266;53.348;-1.496;2022-09-20T12:12:47;2.38;;;1.63;;
73919;SDS011;62266;53.348;-1.496;2022-09-20T12:18:02;2.10;;;1.65;;
73919;SDS011;62266;53.348;-1.496;2022-09-20T12:26:52;5.38;;;3.00;;
73919;SDS011;62266;53.348;-1.496;2022-09-20T12:28:59;4.03;;;2.53;;
73919;SDS011;62266;53.348;-1.496;2022-09-20T12:39:30;4.35;;;2.30;;
73919;SDS011;62266;53.348;-1.496;2022-09-20T12:41:59;3.73;;;2.47;;
73919;SDS011;62266;53.348;-1.496;2022-09-20T12:47:20;5.68;;;2.08;;
73919;SDS011;62266;53.348;-1.496;2022-09-20T12:49:49;3.20;;;1.98;;
73919;SDS011;62266;53.348;-1.496;2022-09-20T13:00:49;5.37;;;2.23;;
73919;SDS011;62266;53.348;-1.496;2022-09-20T13:03:36;3.95;;;2.13;;
73919;SDS011;62266;53.348;-1.496;2022-09-20T13:08:30;3.13;;;1.70;;
73919;SDS011;62266;53.348;-1.496;2022-09-20T13:11:00;2.58;;;1.70;;
73919;SDS011;62266;53.348;-1.496;2022-09-20T13:16:22;2.63;;;1.63;;
73919;SDS011;62266;53.348;-1.496;2022-09-20T13:19:01;2.67;;;1.80;;
73919;SDS011;62266;53.348;-1.496;2022-09-20T13:21:32;2.95;;;1.85;;
73919;SDS011;62266;53.348;-1.496;2022-09-20T13:24:00;3.10;;;1.60;;
73919;SDS011;62266;53.348;-1.496;2022-09-20T13:26:28;2.77;;;1.80;;
73919;SDS011;62266;53.348;-1.496;2022-09-20T13:28:58;3.50;;;2.20;;
73919;SDS011;62266;53.348;-1.496;2022-09-20T13:31:24;2.60;;;1.98;;
73919;SDS011;62266;53.348;-1.496;2022-09-20T13:33:52;4.90;;;2.60;;
73919;SDS011;62266;53.348;-1.496;2022-09-20T13:36:21;3.53;;;1.93;;
73919;SDS011;62266;53.348;-1.496;2022-09-20T13:38:50;3.13;;;1.80;;
73919;SDS011;62266;53.348;-1.496;2022-09-20T13:41:17;2.90;;;2.05;;
73919;SDS011;62266;53.348;-1.496;2022-09-20T13:43:44;2.22;;;1.70;;
73919;SDS011;62266;53.348;-1.496;2022-09-20T13:48:45;2.97;;;1.87;;
73919;SDS011;62266;53.348;-1.496;2022-09-20T13:51:19;2.60;;;1.50;;
73919;SDS011;62266;53.348;-1.496;2022-09-20T13:53:51;3.35;;;2.10;;
73919;SDS011;62266;53.348;-1.496;2022-09-20T13:58:46;4.03;;;2.40;;
73919;SDS011;62266;53.348;-1.496;2022-09-20T14:01:27;3.87;;;1.80;;
73919;SDS011;62266;53.348;-1.496;2022-09-20T14:03:56;3.83;;;1.65;;
73919;SDS011;62266;53.348;-1.496;2022-09-20T14:06:28;2.72;;;1.50;;
73919;SDS011;62266;53.348;-1.496;2022-09-20T14:08:53;3.53;;;1.80;;
73919;SDS011;62266;53.348;-1.496;2022-09-20T14:11:21;3.10;;;1.40;;
73919;SDS011;62266;53.348;-1.496;2022-09-20T14:13:51;2.13;;;1.52;;
73919;SDS011;62266;53.348;-1.496;2022-09-20T14:16:19;4.10;;;1.17;;
73919;SDS011;62266;53.348;-1.496;2022-09-20T14:18:46;2.45;;;1.55;;
73919;SDS011;62266;53.348;-1.496;2022-09-20T14:21:13;2.97;;;1.57;;
73919;SDS011;62266;53.348;-1.496;2022-09-20T14:28:42;3.10;;;1.80;;
73919;SDS011;62266;53.348;-1.496;2022-09-20T14:31:22;2.67;;;1.77;;
73919;SDS011;62266;53.348;-1.496;2022-09-20T14:33:50;3.00;;;2.17;;
73919;SDS011;62266;53.348;-1.496;2022-09-20T14:36:22;3.10;;;1.90;;
73919;SDS011;62266;53.348;-1.496;2022-09-20T14:38:51;3.60;;;1.83;;
73919;SDS011;62266;53.348;-1.496;2022-09-20T14:41:32;4.25;;;2.53;;
73919;SDS011;62266;53.348;-1.496;2022-09-20T14:43:59;2.80;;;1.90;;
73919;SDS011;62266;53.348;-1.496;2022-09-20T14:46:29;3.63;;;1.97;;
73919;SDS011;62266;53.348;-1.496;2022-09-20T14:51:43;3.88;;;1.95;;
73919;SDS011;62266;53.348;-1.496;2022-09-20T14:56:35;5.00;;;2.00;;
73919;SDS011;62266;53.348;-1.496;2022-09-20T15:01:41;3.00;;;1.90;;
73919;SDS011;62266;53.348;-1.496;2022-09-20T15:04:19;4.82;;;2.03;;
73919;SDS011;62266;53.348;-1.496;2022-09-20T15:06:45;3.63;;;1.92;;
73919;SDS011;62266;53.348;-1.496;2022-09-20T15:09:12;5.45;;;2.33;;
73919;SDS011;62266;53.348;-1.496;2022-09-20T15:11:38;2.77;;;1.90;;
73919;SDS011;62266;53.348;-1.496;2022-09-20T15:14:04;3.67;;;1.90;;
73919;SDS011;62266;53.348;-1.496;2022-09-20T15:16:30;2.67;;;2.25;;
73919;SDS011;62266;53.348;-1.496;2022-09-20T15:18:57;3.50;;;1.95;;
73919;SDS011;62266;53.348;-1.496;2022-09-20T15:21:23;3.30;;;1.90;;
73919;SDS011;62266;53.348;-1.496;2022-09-20T15:23:49;2.63;;;1.85;;
73919;SDS011;62266;53.348;-1.496;2022-09-20T15:26:15;3.58;;;1.98;;
73919;SDS011;62266;53.348;-1.496;2022-09-20T15:28:41;2.80;;;1.90;;
73919;SDS011;62266;53.348;-1.496;2022-09-20T15:31:09;2.90;;;1.98;;
73919;SDS011;62266;53.348;-1.496;2022-09-20T15:33:35;3.10;;;1.90;;
73919;SDS011;62266;53.348;-1.496;2022-09-20T15:36:00;2.97;;;1.87;;
73919;SDS011;62266;53.348;-1.496;2022-09-20T15:38:27;3.78;;;1.38;;
73919;SDS011;62266;53.348;-1.496;2022-09-20T15:40:53;3.13;;;1.87;;
73919;SDS011;62266;53.348;-1.496;2022-09-20T15:43:20;2.17;;;1.25;;
73919;SDS011;62266;53.348;-1.496;2022-09-20T15:48:15;2.22;;;1.40;;
73919;SDS011;62266;53.348;-1.496;2022-09-20T15:50:57;2.57;;;1.37;;
73919;SDS011;62266;53.348;-1.496;2022-09-20T15:53:26;3.35;;;1.83;;
73919;SDS011;62266;53.348;-1.496;2022-09-20T15:55:57;2.72;;;1.55;;
73919;SDS011;62266;53.348;-1.496;2022-09-20T15:58:28;2.20;;;1.60;;
73919;SDS011;62266;53.348;-1.496;2022-09-20T16:01:05;2.53;;;1.70;;
73919;SDS011;62266;53.348;-1.496;2022-09-20T16:03:33;3.23;;;1.80;;
73919;SDS011;62266;53.348;-1.496;2022-09-20T16:06:01;2.70;;;1.45;;
73919;SDS011;62266;53.348;-1.496;2022-09-20T16:08:31;2.80;;;1.75;;
73919;SDS011;62266;53.348;-1.496;2022-09-20T16:10:58;3.97;;;1.90;;
73919;SDS011;62266;53.348;-1.496;2022-09-20T16:13:24;5.05;;;1.83;;
73919;SDS011;62266;53.348;-1.496;2022-09-20T16:15:54;2.57;;;1.50;;
73919;SDS011;62266;53.348;-1.496;2022-09-20T16:18:20;4.93;;;2.22;;
73919;SDS011;62266;53.348;-1.496;2022-09-20T16:21:05;2.22;;;1.70;;
73919;SDS011;62266;53.348;-1.496;2022-09-20T16:23:32;2.87;;;1.70;;
73919;SDS011;62266;53.348;-1.496;2022-09-20T16:25:57;2.85;;;1.40;;
73919;SDS011;62266;53.348;-1.496;2022-09-20T16:28:23;2.93;;;1.53;;
73919;SDS011;62266;53.348;-1.496;2022-09-20T16:30:55;4.83;;;1.80;;
73919;SDS011;62266;53.348;-1.496;2022-09-20T16:33:21;3.95;;;1.80;;
73919;SDS011;62266;53.348;-1.496;2022-09-20T16:35:48;3.13;;;1.35;;
73919;SDS011;62266;53.348;-1.496;2022-09-20T16:38:13;5.13;;;2.30;;
73919;SDS011;62266;53.348;-1.496;2022-09-20T16:40:40;2.10;;;1.55;;
73919;SDS011;62266;53.348;-1.496;2022-09-20T16:43:05;4.05;;;2.10;;
73919;SDS011;62266;53.348;-1.496;2022-09-20T16:45:33;6.88;;;2.53;;
73919;SDS011;62266;53.348;-1.496;2022-09-20T16:47:59;4.17;;;2.07;;
73919;SDS011;62266;53.348;-1.496;2022-09-20T16:50:26;3.35;;;1.58;;
73919;SDS011;62266;53.348;-1.496;2022-09-20T16:52:53;3.00;;;2.00;;
73919;SDS011;62266;53.348;-1.496;2022-09-20T16:55:18;4.30;;;2.00;;
73919;SDS011;62266;53.348;-1.496;2022-09-20T16:57:49;3.92;;;2.10;;
73919;SDS011;62266;53.348;-1.496;2022-09-20T17:00:15;2.83;;;1.80;;
73919;SDS011;62266;53.348;-1.496;2022-09-20T17:02:47;3.97;;;2.17;;
73919;SDS011;62266;53.348;-1.496;2022-09-20T17:05:14;3.58;;;2.10;;
73919;SDS011;62266;53.348;-1.496;2022-09-20T17:07:40;4.17;;;2.33;;
73919;SDS011;62266;53.348;-1.496;2022-09-20T17:10:08;3.25;;;2.00;;
73919;SDS011;62266;53.348;-1.496;2022-09-20T17:12:35;4.93;;;2.17;;
73919;SDS011;62266;53.348;-1.496;2022-09-20T17:15:06;3.90;;;2.20;;
73919;SDS011;62266;53.348;-1.496;2022-09-20T17:17:33;3.85;;;2.10;;
73919;SDS011;62266;53.348;-1.496;2022-09-20T17:19:58;3.03;;;2.10;;
73919;SDS011;62266;53.348;-1.496;2022-09-20T17:22:28;6.97;;;2.40;;
73919;SDS011;62266;53.348;-1.496;2022-09-20T17:24:54;4.20;;;2.47;;
73919;SDS011;62266;53.348;-1.496;2022-09-20T17:27:20;3.83;;;2.30;;
73919;SDS011;62266;53.348;-1.496;2022-09-20T17:29:46;4.43;;;2.50;;
73919;SDS011;62266;53.348;-1.496;2022-09-20T17:32:11;4.63;;;2.70;;
73919;SDS011;62266;53.348;-1.496;2022-09-20T17:34:37;3.23;;;2.40;;
73919;SDS011;62266;53.348;-1.496;2022-09-20T17:37:03;4.77;;;2.53;;
73919;SDS011;62266;53.348;-1.496;2022-09-20T17:39:28;3.23;;;2.60;;
73919;SDS011;62266;53.348;-1.496;2022-09-20T17:41:54;4.93;;;2.20;;
73919;SDS011;62266;53.348;-1.496;2022-09-20T17:44:21;3.78;;;2.22;;
73919;SDS011;62266;53.348;-1.496;2022-09-20T17:46:47;4.05;;;2.40;;
73919;SDS011;62266;53.348;-1.496;2022-09-20T17:49:18;4.33;;;2.43;;
73919;SDS011;62266;53.348;-1.496;2022-09-20T17:51:46;5.45;;;3.47;;
73919;SDS011;62266;53.348;-1.496;2022-09-20T17:54:13;6.88;;;3.90;;
73919;SDS011;62266;53.348;-1.496;2022-09-20T17:56:39;6.25;;;3.28;;
73919;SDS011;62266;53.348;-1.496;2022-09-20T17:59:06;7.50;;;3.55;;
73919;SDS011;62266;53.348;-1.496;2022-09-20T18:01:33;4.93;;;3.23;;
73919;SDS011;62266;53.348;-1.496;2022-09-20T18:04:00;6.95;;;3.40;;
73919;SDS011;62266;53.348;-1.496;2022-09-20T18:06:27;5.47;;;3.15;;
73919;SDS011;62266;53.348;-1.496;2022-09-20T18:11:31;6.50;;;4.07;;
73919;SDS011;62266;53.348;-1.496;2022-09-20T18:13:59;7.20;;;4.00;;
73919;SDS011;62266;53.348;-1.496;2022-09-20T18:16:26;7.82;;;3.80;;
73919;SDS011;62266;53.348;-1.496;2022-09-20T18:18:52;5.45;;;3.50;;
73919;SDS011;62266;53.348;-1.496;2022-09-20T18:21:19;4.82;;;3.38;;
73919;SDS011;62266;53.348;-1.496;2022-09-20T18:23:49;4.10;;;2.90;;
73919;SDS011;62266;53.348;-1.496;2022-09-20T18:26:17;5.47;;;3.35;;
73919;SDS011;62266;53.348;-1.496;2022-09-20T18:29:20;3.92;;;2.83;;
73919;SDS011;62266;53.348;-1.496;2022-09-20T18:31:44;4.45;;;2.60;;
73919;SDS011;62266;53.348;-1.496;2022-09-20T18:34:18;5.10;;;2.80;;
73919;SDS011;62266;53.348;-1.496;2022-09-20T18:36:46;4.10;;;2.70;;
73919;SDS011;62266;53.348;-1.496;2022-09-20T18:39:21;3.97;;;2.80;;
73919;SDS011;62266;53.348;-1.496;2022-09-20T18:41:48;7.60;;;3.78;;
73919;SDS011;62266;53.348;-1.496;2022-09-20T18:44:14;7.13;;;4.40;;
73919;SDS011;62266;53.348;-1.496;2022-09-20T18:46:42;8.32;;;4.35;;
73919;SDS011;62266;53.348;-1.496;2022-09-20T18:49:09;5.93;;;4.30;;
73919;SDS011;62266;53.348;-1.496;2022-09-20T18:51:39;10.82;;;5.93;;
73919;SDS011;62266;53.348;-1.496;2022-09-20T18:54:06;11.23;;;6.05;;
73919;SDS011;62266;53.348;-1.496;2022-09-20T18:56:37;22.08;;;12.23;;
73919;SDS011;62266;53.348;-1.496;2022-09-20T18:59:05;21.95;;;10.25;;
73919;SDS011;62266;53.348;-1.496;2022-09-20T19:20:33;25.55;;;7.40;;
73919;SDS011;62266;53.348;-1.496;2022-09-20T19:23:28;23.08;;;6.97;;
73919;SDS011;62266;53.348;-1.496;2022-09-20T19:26:47;22.50;;;7.60;;
73919;SDS011;62266;53.348;-1.496;2022-09-20T19:29:19;18.53;;;6.60;;
73919;SDS011;62266;53.348;-1.496;2022-09-20T19:31:47;17.38;;;6.63;;
73919;SDS011;62266;53.348;-1.496;2022-09-20T19:34:24;22.65;;;7.15;;
73919;SDS011;62266;53.348;-1.496;2022-09-20T19:44:54;7.75;;;4.95;;
73919;SDS011;62266;53.348;-1.496;2022-09-20T19:47:35;8.13;;;5.05;;
73919;SDS011;62266;53.348;-1.496;2022-09-20T19:50:15;11.45;;;6.32;;
73919;SDS011;62266;53.348;-1.496;2022-09-20T19:52:52;10.82;;;5.47;;
73919;SDS011;62266;53.348;-1.496;2022-09-20T19:55:20;11.73;;;4.57;;
73919;SDS011;62266;53.348;-1.496;2022-09-20T19:57:47;10.70;;;4.75;;
73919;SDS011;62266;53.348;-1.496;2022-09-20T20:00:14;10.07;;;5.10;;
73919;SDS011;62266;53.348;-1.496;2022-09-20T20:02:42;14.82;;;5.63;;
73919;SDS011;62266;53.348;-1.496;2022-09-20T20:05:12;13.82;;;4.82;;
73919;SDS011;62266;53.348;-1.496;2022-09-20T20:07:48;12.83;;;4.80;;
73919;SDS011;62266;53.348;-1.496;2022-09-20T20:10:43;13.65;;;4.95;;
73919;SDS011;62266;53.348;-1.496;2022-09-20T20:16:47;17.92;;;4.82;;
73919;SDS011;62266;53.348;-1.496;2022-09-20T20:22:10;33.60;;;6.77;;
73919;SDS011;62266;53.348;-1.496;2022-09-20T20:24:55;22.70;;;5.28;;
73919;SDS011;62266;53.348;-1.496;2022-09-20T20:27:22;19.92;;;5.10;;
73919;SDS011;62266;53.348;-1.496;2022-09-20T20:29:49;15.00;;;4.28;;
73919;SDS011;62266;53.348;-1.496;2022-09-20T20:32:15;9.63;;;4.30;;
73919;SDS011;62266;53.348;-1.496;2022-09-20T20:34:40;14.07;;;4.43;;
73919;SDS011;62266;53.348;-1.496;2022-09-20T20:37:06;18.33;;;4.82;;
73919;SDS011;62266;53.348;-1.496;2022-09-20T20:39:33;20.30;;;4.73;;
73919;SDS011;62266;53.348;-1.496;2022-09-20T20:41:59;15.30;;;4.47;;
73919;SDS011;62266;53.348;-1.496;2022-09-20T20:44:26;11.48;;;4.90;;
73919;SDS011;62266;53.348;-1.496;2022-09-20T20:46:53;10.77;;;4.00;;
73919;SDS011;62266;53.348;-1.496;2022-09-20T20:49:18;11.60;;;4.30;;
73919;SDS011;62266;53.348;-1.496;2022-09-20T20:51:44;17.27;;;5.10;;
73919;SDS011;62266;53.348;-1.496;2022-09-20T20:54:11;16.52;;;4.80;;
73919;SDS011;62266;53.348;-1.496;2022-09-20T20:56:37;18.67;;;4.88;;
73919;SDS011;62266;53.348;-1.496;2022-09-20T20:59:03;13.20;;;4.47;;
73919;SDS011;62266;53.348;-1.496;2022-09-20T21:01:30;9.77;;;4.50;;
73919;SDS011;62266;53.348;-1.496;2022-09-20T21:03:57;13.23;;;4.60;;
73919;SDS011;62266;53.348;-1.496;2022-09-20T21:06:24;13.43;;;4.45;;
73919;SDS011;62266;53.348;-1.496;2022-09-20T21:08:52;5.72;;;3.83;;